Pagrindinis puslapis
METAR-TAF:

METAR-TAF

Oro uostai :

Insbruko oro uostas

Insbrukas, Austrija

platuma: 47-16N, ilguma: 011-21E, Aukštis: 581 m

Dabartinis oras

Ataskaita buvo paskelbta 42 minutes, ne 08:20 UTC
Vėjas 2 kt nuo kintamojo kryptimis
Temperatūra 14°C
Drėgmė 63%
Slėgis 1019 hPa
Matomumas 10 km arba daugiau
Mažai debesys ne aukštis 3500 ft
Išsisklaidę debesys ne aukštis 8000 ft

METAR: LOWI 310820Z VRB02KT 9999 FEW035 SCT080 14/07 Q1019 NOSIG

Laikas: 11:02 (09:02 UTC)

Prognozė

Ataskaita buvo paskelbta 3 valandos ir 47 minutes, ne 05:15 UTC
Prognozė galioja nuo 31 metu 06 UTC su 01 metu 06 UTC
Vėjas 4 kt iš Vakarų
Matomumas 10 km arba daugiau
Mažai debesys ne aukštis 6000 ft
Su prošvaistėmis ne aukštis 8000 ft
Tapsmas
nuo 31 metu 09 UTC su 31 metu 11 UTC
Vėjas 10 kt iš Rytų
Tapsmas
nuo 31 metu 16 UTC su 31 metu 18 UTC
Vėjas 3 kt nuo kintamojo kryptimis

TAF: LOWI 310515Z 3106/0106 27004KT 9999 FEW060 BKN080 TX18/3113Z TN08/0104Z BECMG 3109/3111 09010KT BECMG 3116/3118 VRB03KT

Orai ataskaitas ir orų prognozės (METAR, TAF).

turimą stotys yra geltonos ir raudonos taškus žemėlapyje.

Perkelti pele per norėdami pamatyti stoties vardą.

Tada spustelėkite, norėdami matyti oro stebėjimo ir prognozės.

Norėdami pakeisti žemėlapį: spustelėkite ant žalios mygtukų su juodo kryžiaus žemyn,; žalią mygtuką su brūkšneliu, jei norite nutolinti; arba žalių rodyklių gretimoms žemėlapius.


METAR-TAF: